KLM106 EGBB-EGLL
Flight info
| Callsign | KLM106 |
|---|---|
| Flight time | 0h 24m |
| Altitude | 15000 |
| Route | DTY DCT WEZKO |
| Aircraft | B77W/H-SDE1E2E3FGHIJ2J3J4J5M1RWXY/LB1D1 |
Departure
| Time | 2026-04-30 12:11 |
|---|---|
| Airport | Birmingham Airport (EGBB) |
Arrival
| Time | 2026-04-30 12:35 |
|---|---|
| Airport | London Heathrow Airport (EGLL) |
| Time | Latitude | Longitude | Altitude | Speed | Heading |
|---|---|---|---|---|---|
| 2026-04-30 11:45 | 52.45629 | -1.73683 | 328 ft | 0 kts | 236° |
| 2026-04-30 11:52 | 52.45630 | -1.73680 | 328 ft | 0 kts | 232° |
| 2026-04-30 11:52 | 52.45634 | -1.73673 | 328 ft | 3 kts | 238° |
| 2026-04-30 11:52 | 52.45635 | -1.73669 | 328 ft | 0 kts | 232° |
| 2026-04-30 11:53 | 52.45640 | -1.73659 | 328 ft | 3 kts | 217° |
| 2026-04-30 11:53 | 52.45657 | -1.73644 | 328 ft | 3 kts | 180° |
| 2026-04-30 11:53 | 52.45676 | -1.73650 | 328 ft | 2 kts | 150° |
| 2026-04-30 11:54 | 52.45677 | -1.73652 | 328 ft | 0 kts | 150° |
| 2026-04-30 12:03 | 52.45674 | -1.73651 | 328 ft | 1 kts | 165° |
| 2026-04-30 12:03 | 52.45664 | -1.73658 | 328 ft | 1 kts | 210° |
| 2026-04-30 12:04 | 52.45659 | -1.73675 | 328 ft | 2 kts | 246° |
| 2026-04-30 12:04 | 52.45642 | -1.73743 | 329 ft | 13 kts | 248° |
| 2026-04-30 12:04 | 52.45603 | -1.73887 | 329 ft | 14 kts | 245° |
| 2026-04-30 12:04 | 52.45561 | -1.74036 | 328 ft | 15 kts | 245° |
| 2026-04-30 12:05 | 52.45512 | -1.74169 | 329 ft | 12 kts | 237° |
| 2026-04-30 12:05 | 52.45465 | -1.74271 | 328 ft | 9 kts | 220° |
| 2026-04-30 12:05 | 52.45414 | -1.74299 | 332 ft | 3 kts | 209° |
| 2026-04-30 12:05 | 52.45409 | -1.74354 | 331 ft | 8 kts | 285° |
| 2026-04-30 12:06 | 52.45447 | -1.74479 | 328 ft | 18 kts | 297° |
| 2026-04-30 12:06 | 52.45542 | -1.74646 | 327 ft | 21 kts | 324° |
| 2026-04-30 12:06 | 52.45664 | -1.74781 | 326 ft | 21 kts | 326° |
| 2026-04-30 12:06 | 52.45783 | -1.74914 | 324 ft | 21 kts | 326° |
| 2026-04-30 12:07 | 52.45905 | -1.75049 | 323 ft | 21 kts | 326° |
| 2026-04-30 12:07 | 52.46026 | -1.75183 | 321 ft | 20 kts | 326° |
| 2026-04-30 12:07 | 52.46141 | -1.75312 | 320 ft | 20 kts | 326° |
| 2026-04-30 12:07 | 52.46258 | -1.75442 | 320 ft | 20 kts | 326° |
| 2026-04-30 12:08 | 52.46375 | -1.75572 | 321 ft | 20 kts | 326° |
| 2026-04-30 12:08 | 52.46491 | -1.75701 | 320 ft | 20 kts | 326° |
| 2026-04-30 12:08 | 52.46572 | -1.75791 | 319 ft | 8 kts | 326° |
| 2026-04-30 12:08 | 52.46621 | -1.75853 | 319 ft | 9 kts | 310° |
| 2026-04-30 12:09 | 52.46622 | -1.75925 | 318 ft | 0 kts | 246° |
| 2026-04-30 12:09 | 52.46622 | -1.75927 | 318 ft | 1 kts | 246° |
| 2026-04-30 12:10 | 52.46608 | -1.75972 | 318 ft | 12 kts | 241° |
| 2026-04-30 12:10 | 52.46568 | -1.76065 | 320 ft | 8 kts | 226° |
| 2026-04-30 12:10 | 52.46515 | -1.76055 | 319 ft | 8 kts | 149° |
| 2026-04-30 12:10 | 52.46391 | -1.75921 | 318 ft | 51 kts | 146° |
| 2026-04-30 12:11 | 52.45840 | -1.75308 | 324 ft | 136 kts | 146° |
| 2026-04-30 12:11 | 52.44870 | -1.74234 | 447 ft | 189 kts | 146° |
| 2026-04-30 12:11 | 52.43762 | -1.73010 | 1217 ft | 197 kts | 146° |
| 2026-04-30 12:11 | 52.42623 | -1.71744 | 2124 ft | 199 kts | 146° |
| 2026-04-30 12:12 | 52.41442 | -1.70440 | 2681 ft | 219 kts | 148° |
| 2026-04-30 12:12 | 52.39935 | -1.69518 | 2939 ft | 247 kts | 168° |
| 2026-04-30 12:12 | 52.38172 | -1.68931 | 3566 ft | 260 kts | 166° |
| 2026-04-30 12:12 | 52.36482 | -1.67792 | 4518 ft | 263 kts | 147° |
| 2026-04-30 12:13 | 52.35265 | -1.65574 | 5302 ft | 267 kts | 114° |
| 2026-04-30 12:13 | 52.34786 | -1.62642 | 5719 ft | 275 kts | 101° |
| 2026-04-30 12:13 | 52.34439 | -1.59537 | 5796 ft | 274 kts | 100° |
| 2026-04-30 12:13 | 52.33972 | -1.56552 | 5713 ft | 273 kts | 115° |
| 2026-04-30 12:14 | 52.33074 | -1.53810 | 5793 ft | 275 kts | 120° |
| 2026-04-30 12:14 | 52.32151 | -1.51037 | 5815 ft | 272 kts | 118° |
| 2026-04-30 12:14 | 52.31317 | -1.48417 | 6497 ft | 262 kts | 118° |
| 2026-04-30 12:14 | 52.30431 | -1.45761 | 7412 ft | 265 kts | 120° |
| 2026-04-30 12:15 | 52.29495 | -1.43159 | 8368 ft | 269 kts | 121° |
| 2026-04-30 12:15 | 52.28535 | -1.40528 | 9287 ft | 265 kts | 121° |
| 2026-04-30 12:15 | 52.27600 | -1.38004 | 9853 ft | 259 kts | 121° |
| 2026-04-30 12:15 | 52.26669 | -1.35435 | 10541 ft | 265 kts | 120° |
| 2026-04-30 12:16 | 52.25698 | -1.32723 | 10830 ft | 289 kts | 120° |
| 2026-04-30 12:16 | 52.24650 | -1.29805 | 10878 ft | 305 kts | 121° |
| 2026-04-30 12:16 | 52.23587 | -1.26854 | 10926 ft | 298 kts | 121° |
| 2026-04-30 12:16 | 52.22543 | -1.23960 | 10971 ft | 293 kts | 121° |
| 2026-04-30 12:17 | 52.20458 | -1.18188 | 11003 ft | 297 kts | 121° |
| 2026-04-30 12:17 | 52.19417 | -1.15315 | 11008 ft | 299 kts | 121° |
| 2026-04-30 12:17 | 52.18349 | -1.12388 | 11003 ft | 298 kts | 123° |
| 2026-04-30 12:18 | 52.16968 | -1.09788 | 11020 ft | 320 kts | 139° |
| 2026-04-30 12:18 | 52.15115 | -1.07397 | 11030 ft | 358 kts | 143° |
| 2026-04-30 12:18 | 52.13081 | -1.04905 | 11004 ft | 369 kts | 143° |
| 2026-04-30 12:18 | 52.11033 | -1.02415 | 10984 ft | 372 kts | 143° |
| 2026-04-30 12:19 | 52.08958 | -0.99879 | 11009 ft | 371 kts | 143° |
| 2026-04-30 12:19 | 52.06895 | -0.97341 | 11004 ft | 371 kts | 143° |
| 2026-04-30 12:19 | 52.04839 | -0.94797 | 11007 ft | 371 kts | 143° |
| 2026-04-30 12:19 | 52.02809 | -0.92279 | 10955 ft | 369 kts | 143° |
| 2026-04-30 12:20 | 52.00776 | -0.89751 | 10645 ft | 366 kts | 143° |
| 2026-04-30 12:20 | 51.98749 | -0.87230 | 10263 ft | 366 kts | 143° |
| 2026-04-30 12:20 | 51.96742 | -0.84736 | 9884 ft | 365 kts | 143° |
| 2026-04-30 12:20 | 51.94730 | -0.82239 | 9560 ft | 363 kts | 143° |
| 2026-04-30 12:21 | 51.92716 | -0.79740 | 9233 ft | 361 kts | 143° |
| 2026-04-30 12:21 | 51.90725 | -0.77276 | 8916 ft | 360 kts | 143° |
| 2026-04-30 12:21 | 51.88736 | -0.74817 | 8600 ft | 358 kts | 143° |
| 2026-04-30 12:21 | 51.86787 | -0.72407 | 8454 ft | 351 kts | 143° |
| 2026-04-30 12:22 | 51.84914 | -0.70096 | 8308 ft | 327 kts | 143° |
| 2026-04-30 12:22 | 51.83163 | -0.67936 | 8172 ft | 307 kts | 143° |
| 2026-04-30 12:22 | 51.81512 | -0.65903 | 8067 ft | 283 kts | 143° |
| 2026-04-30 12:22 | 51.80024 | -0.64071 | 7997 ft | 261 kts | 143° |
| 2026-04-30 12:23 | 51.78623 | -0.62347 | 7811 ft | 249 kts | 143° |
| 2026-04-30 12:23 | 51.77248 | -0.60658 | 7498 ft | 246 kts | 143° |
| 2026-04-30 12:23 | 51.75886 | -0.58987 | 7083 ft | 243 kts | 143° |
| 2026-04-30 12:23 | 51.74557 | -0.57358 | 6597 ft | 242 kts | 143° |
| 2026-04-30 12:24 | 51.73213 | -0.55728 | 6069 ft | 241 kts | 147° |
| 2026-04-30 12:24 | 51.71664 | -0.54860 | 5585 ft | 235 kts | 178° |
| 2026-04-30 12:24 | 51.70054 | -0.54799 | 5215 ft | 227 kts | 179° |
| 2026-04-30 12:24 | 51.68494 | -0.54723 | 4852 ft | 221 kts | 179° |
| 2026-04-30 12:25 | 51.66950 | -0.54643 | 4790 ft | 221 kts | 179° |
| 2026-04-30 12:25 | 51.65430 | -0.54564 | 4807 ft | 213 kts | 179° |
| 2026-04-30 12:25 | 51.63994 | -0.54514 | 4752 ft | 204 kts | 184° |
| 2026-04-30 12:25 | 51.62632 | -0.55026 | 4781 ft | 203 kts | 205° |
| 2026-04-30 12:26 | 51.61461 | -0.56274 | 4767 ft | 202 kts | 225° |
| 2026-04-30 12:26 | 51.60659 | -0.58086 | 4749 ft | 198 kts | 246° |
| 2026-04-30 12:26 | 51.60255 | -0.60161 | 4748 ft | 195 kts | 261° |
| 2026-04-30 12:26 | 51.60093 | -0.62323 | 4773 ft | 194 kts | 264° |
| 2026-04-30 12:27 | 51.59962 | -0.64505 | 4779 ft | 197 kts | 265° |
| 2026-04-30 12:27 | 51.59837 | -0.66713 | 4662 ft | 197 kts | 265° |
| 2026-04-30 12:27 | 51.59708 | -0.68912 | 4462 ft | 197 kts | 264° |
| 2026-04-30 12:27 | 51.59576 | -0.71114 | 4226 ft | 199 kts | 264° |
| 2026-04-30 12:28 | 51.59443 | -0.73300 | 4135 ft | 197 kts | 264° |
| 2026-04-30 12:28 | 51.59305 | -0.75489 | 4022 ft | 196 kts | 262° |
| 2026-04-30 12:28 | 51.58860 | -0.77550 | 3863 ft | 196 kts | 237° |
| 2026-04-30 12:28 | 51.57881 | -0.79066 | 3714 ft | 197 kts | 210° |
| 2026-04-30 12:29 | 51.56593 | -0.79715 | 3558 ft | 196 kts | 186° |
| 2026-04-30 12:29 | 51.55276 | -0.79727 | 3495 ft | 184 kts | 178° |
| 2026-04-30 12:29 | 51.54022 | -0.79625 | 3326 ft | 177 kts | 177° |
| 2026-04-30 12:29 | 51.52800 | -0.79520 | 3121 ft | 174 kts | 178° |
| 2026-04-30 12:30 | 51.51590 | -0.79419 | 2854 ft | 174 kts | 178° |
| 2026-04-30 12:30 | 51.50384 | -0.79312 | 2611 ft | 173 kts | 177° |
| 2026-04-30 12:30 | 51.49218 | -0.78997 | 2361 ft | 172 kts | 158° |
| 2026-04-30 12:30 | 51.48331 | -0.77808 | 2303 ft | 169 kts | 117° |
| 2026-04-30 12:31 | 51.48058 | -0.75990 | 2308 ft | 170 kts | 98° |
| 2026-04-30 12:31 | 51.47899 | -0.74079 | 2257 ft | 173 kts | 97° |
| 2026-04-30 12:31 | 51.47759 | -0.72187 | 2251 ft | 169 kts | 95° |
| 2026-04-30 12:31 | 51.47695 | -0.70328 | 2263 ft | 165 kts | 91° |
| 2026-04-30 12:32 | 51.47682 | -0.68507 | 2258 ft | 166 kts | 90° |
| 2026-04-30 12:32 | 51.47683 | -0.66677 | 2249 ft | 161 kts | 90° |
| 2026-04-30 12:32 | 51.47690 | -0.65135 | 2112 ft | 156 kts | 90° |
| 2026-04-30 12:32 | 51.47694 | -0.63433 | 1890 ft | 150 kts | 89° |
| 2026-04-30 12:33 | 51.47702 | -0.61766 | 1687 ft | 150 kts | 89° |
| 2026-04-30 12:33 | 51.47707 | -0.60084 | 1510 ft | 152 kts | 90° |
| 2026-04-30 12:33 | 51.47713 | -0.58402 | 1342 ft | 153 kts | 90° |
| 2026-04-30 12:33 | 51.47719 | -0.56708 | 1116 ft | 150 kts | 90° |
| 2026-04-30 12:34 | 51.47725 | -0.55071 | 930 ft | 144 kts | 89° |
| 2026-04-30 12:34 | 51.47729 | -0.53439 | 745 ft | 147 kts | 89° |
| 2026-04-30 12:34 | 51.47739 | -0.51810 | 534 ft | 148 kts | 90° |
| 2026-04-30 12:34 | 51.47741 | -0.50185 | 322 ft | 144 kts | 90° |
| 2026-04-30 12:35 | 51.47749 | -0.48582 | 146 ft | 144 kts | 89° |
| 2026-04-30 12:35 | 51.47753 | -0.47045 | 94 ft | 124 kts | 90° |
| 2026-04-30 12:35 | 51.47757 | -0.46002 | 93 ft | 57 kts | 89° |
| 2026-04-30 12:35 | 51.47759 | -0.45677 | 91 ft | 21 kts | 90° |
| 2026-04-30 12:36 | 51.47711 | -0.45485 | 93 ft | 20 kts | 157° |
| 2026-04-30 12:36 | 51.47655 | -0.45472 | 93 ft | 7 kts | 177° |
| 2026-04-30 12:36 | 51.47604 | -0.45469 | 90 ft | 8 kts | 179° |
| 2026-04-30 12:36 | 51.47536 | -0.45476 | 95 ft | 11 kts | 200° |
| 2026-04-30 12:37 | 51.47509 | -0.45592 | 93 ft | 13 kts | 268° |
| 2026-04-30 12:37 | 51.47514 | -0.45758 | 93 ft | 17 kts | 276° |
| 2026-04-30 12:37 | 51.47518 | -0.45957 | 90 ft | 20 kts | 270° |
| 2026-04-30 12:37 | 51.47516 | -0.46191 | 90 ft | 22 kts | 269° |
| 2026-04-30 12:38 | 51.47517 | -0.46382 | 90 ft | 14 kts | 270° |
| 2026-04-30 12:38 | 51.47516 | -0.46487 | 90 ft | 14 kts | 269° |
| 2026-04-30 12:38 | 51.47515 | -0.46646 | 90 ft | 14 kts | 270° |
| 2026-04-30 12:38 | 51.47498 | -0.46802 | 94 ft | 14 kts | 264° |
| 2026-04-30 12:39 | 51.47495 | -0.46963 | 94 ft | 14 kts | 269° |
| 2026-04-30 12:39 | 51.47494 | -0.47121 | 91 ft | 14 kts | 269° |
| 2026-04-30 12:39 | 51.47493 | -0.47279 | 90 ft | 14 kts | 270° |
| 2026-04-30 12:39 | 51.47492 | -0.47436 | 90 ft | 14 kts | 269° |
| 2026-04-30 12:40 | 51.47491 | -0.47593 | 90 ft | 14 kts | 269° |
| 2026-04-30 12:40 | 51.47491 | -0.47749 | 90 ft | 14 kts | 269° |
| 2026-04-30 12:40 | 51.47452 | -0.47879 | 94 ft | 13 kts | 202° |
| 2026-04-30 12:40 | 51.47424 | -0.47881 | 91 ft | 3 kts | 175° |
| 2026-04-30 12:41 | 51.47372 | -0.47878 | 90 ft | 14 kts | 179° |
| 2026-04-30 12:41 | 51.47237 | -0.47876 | 91 ft | 22 kts | 180° |
| 2026-04-30 12:41 | 51.47083 | -0.47875 | 90 ft | 20 kts | 180° |
| 2026-04-30 12:41 | 51.47048 | -0.47852 | 94 ft | 5 kts | 133° |
| 2026-04-30 12:42 | 51.47048 | -0.47796 | 92 ft | 5 kts | 79° |
| 2026-04-30 12:42 | 51.47050 | -0.47753 | 93 ft | 0 kts | 88° |
| 2026-04-30 12:43 | 51.47748 | -0.49093 | 211 ft | 145 kts | 90° |
| 2026-04-30 12:43 | 51.47752 | -0.47659 | 90 ft | 137 kts | 90° |
| 2026-04-30 12:43 | 52.46120 | -1.75620 | 321 ft | 103 kts | 146° |
| 2026-04-30 12:43 | 52.45403 | -1.74821 | 328 ft | 170 kts | 146° |
| 2026-04-30 12:44 | 52.44348 | -1.73657 | 801 ft | 191 kts | 146° |
| 2026-04-30 12:44 | 52.43276 | -1.72473 | 1600 ft | 198 kts | 146° |
| 2026-04-30 12:44 | 51.47050 | -0.47753 | 93 ft | 0 kts | 88° |